Time;durP1;ratioP1;P1;durP2;ratioP2;P2;SDS_P1;SDS_P2;PMS_P1;PMS_P2;Temp;Humidity;BMP_temperature;BMP_pressure;BME280_temperature;BME280_humidity;BME280_pressure;Samples;Min_cycle;Max_cycle;Signal;HPM_P1;HPM_P2
2023/12/22 00:00:56;;;;;;;8.27;2.30;;;;;;;;;;5076114;28;20196;-60
2023/12/22 00:03:24;;;;;;;10.77;1.87;;;;;;;;;;5076161;28;20799;-60
2023/12/22 00:05:51;;;;;;;4.10;1.63;;;;;;;;;;5075955;28;20505;-59
2023/12/22 00:08:18;;;;;;;7.27;1.80;;;;;;;;;;5075875;28;20530;-60
2023/12/22 00:10:46;;;;;;;6.17;1.77;;;;;;;;;;5075778;28;20866;-60
2023/12/22 00:13:13;;;;;;;1.88;1.30;;;;;;;;;;5075797;28;20605;-60
2023/12/22 00:15:40;;;;;;;3.70;1.47;;;;;;;;;;5075853;28;20280;-61
2023/12/22 00:18:07;;;;;;;2.40;1.97;;;;;;;;;;5075794;28;20889;-60
2023/12/22 00:20:34;;;;;;;4.90;1.63;;;;;;;;;;5075706;28;20859;-59
2023/12/22 00:23:01;;;;;;;6.45;1.60;;;;;;;;;;5075589;28;20193;-60
2023/12/22 00:25:28;;;;;;;4.80;1.65;;;;;;;;;;5075833;28;20611;-60
2023/12/22 00:27:56;;;;;;;4.15;1.73;;;;;;;;;;5075591;28;20217;-60
2023/12/22 00:30:24;;;;;;;9.63;2.30;;;;;;;;;;5075645;28;20204;-59
2023/12/22 00:32:51;;;;;;;5.68;2.45;;;;;;;;;;5075545;28;20649;-59
2023/12/22 00:35:18;;;;;;;7.03;2.83;;;;;;;;;;5075512;28;20221;-59
2023/12/22 00:37:45;;;;;;;9.68;2.20;;;;;;;;;;5074574;28;20189;-60
2023/12/22 00:40:12;;;;;;;7.80;2.25;;;;;;;;;;5075549;28;20189;-59
2023/12/22 00:42:39;;;;;;;10.52;2.50;;;;;;;;;;5075496;28;20193;-59
2023/12/22 00:45:07;;;;;;;7.57;2.05;;;;;;;;;;5075297;28;20664;-60
2023/12/22 00:47:35;;;;;;;6.78;1.92;;;;;;;;;;5075187;28;20300;-59
2023/12/22 00:50:02;;;;;;;6.13;2.70;;;;;;;;;;5075308;28;20224;-60
2023/12/22 00:52:29;;;;;;;9.45;2.28;;;;;;;;;;5075317;28;20499;-59
2023/12/22 00:54:56;;;;;;;16.20;4.53;;;;;;;;;;5075009;28;20748;-59
2023/12/22 00:57:23;;;;;;;9.25;2.28;;;;;;;;;;5075007;28;20649;-59
2023/12/22 00:59:50;;;;;;;20.85;3.85;;;;;;;;;;5075014;28;20281;-59
2023/12/22 01:02:20;;;;;;;13.43;2.92;;;;;;;;;;5074901;28;20276;-59
2023/12/22 01:04:47;;;;;;;6.88;2.50;;;;;;;;;;5074796;28;20632;-59
2023/12/22 01:07:14;;;;;;;6.70;2.10;;;;;;;;;;5074724;28;20706;-59
2023/12/22 01:09:41;;;;;;;4.93;2.25;;;;;;;;;;5075136;28;20459;-59
2023/12/22 01:12:10;;;;;;;6.85;1.90;;;;;;;;;;5074765;28;20190;-59
2023/12/22 01:14:37;;;;;;;6.90;2.30;;;;;;;;;;5074689;28;20193;-59
2023/12/22 01:17:04;;;;;;;7.53;2.30;;;;;;;;;;5074862;28;20949;-59
2023/12/22 01:19:32;;;;;;;7.28;1.73;;;;;;;;;;5074488;28;20534;-59
2023/12/22 01:21:59;;;;;;;8.02;2.42;;;;;;;;;;5074681;28;20239;-59
2023/12/22 01:24:26;;;;;;;10.07;2.58;;;;;;;;;;5074582;28;20288;-59
2023/12/22 01:26:53;;;;;;;2.50;1.53;;;;;;;;;;5074435;28;20732;-59
2023/12/22 01:29:20;;;;;;;4.00;1.73;;;;;;;;;;5074390;28;20443;-59
2023/12/22 01:31:47;;;;;;;8.70;1.73;;;;;;;;;;5074172;28;20195;-59
2023/12/22 01:34:14;;;;;;;9.77;1.95;;;;;;;;;;5074412;28;20276;-59
2023/12/22 01:36:42;;;;;;;9.27;2.03;;;;;;;;;;5074355;28;20199;-59
2023/12/22 01:39:09;;;;;;;8.43;2.10;;;;;;;;;;5074251;28;20212;-59
2023/12/22 01:41:36;;;;;;;2.90;1.90;;;;;;;;;;5074190;28;20193;-59
2023/12/22 01:44:03;;;;;;;5.97;1.95;;;;;;;;;;5074018;28;20448;-59
2023/12/22 01:46:30;;;;;;;12.18;2.15;;;;;;;;;;5073785;28;20272;-59
2023/12/22 01:48:57;;;;;;;10.45;1.80;;;;;;;;;;5073104;28;20235;-59
2023/12/22 01:51:24;;;;;;;11.30;2.42;;;;;;;;;;5074086;28;20280;-59
2023/12/22 01:53:53;;;;;;;7.25;2.35;;;;;;;;;;5073986;28;20272;-59
2023/12/22 01:56:20;;;;;;;7.38;1.70;;;;;;;;;;5073914;28;20220;-59
2023/12/22 01:58:47;;;;;;;4.80;1.60;;;;;;;;;;5073781;28;20203;-59
2023/12/22 02:01:14;;;;;;;7.32;2.25;;;;;;;;;;5073713;28;20193;-59
2023/12/22 02:03:41;;;;;;;5.32;1.50;;;;;;;;;;5073882;28;20215;-59
2023/12/22 02:06:08;;;;;;;4.32;1.95;;;;;;;;;;5073820;28;20254;-59
2023/12/22 02:08:36;;;;;;;9.75;2.10;;;;;;;;;;5073550;28;20311;-59
2023/12/22 02:11:04;;;;;;;9.47;2.40;;;;;;;;;;5073598;28;20200;-59
2023/12/22 02:13:31;;;;;;;7.90;2.35;;;;;;;;;;5073400;28;20449;-59
2023/12/22 02:16:01;;;;;;;6.95;1.60;;;;;;;;;;5073709;28;20185;-59
2023/12/22 02:18:31;;;;;;;6.20;2.20;;;;;;;;;;5073618;28;20560;-59
2023/12/22 02:20:58;;;;;;;9.82;2.63;;;;;;;;;;5073579;28;20213;-59
2023/12/22 02:23:26;;;;;;;5.22;2.10;;;;;;;;;;5073412;28;20190;-59
2023/12/22 02:25:57;;;;;;;6.82;2.30;;;;;;;;;;5073269;28;20185;-59
2023/12/22 02:28:25;;;;;;;7.32;1.88;;;;;;;;;;5073486;28;20213;-59
2023/12/22 02:30:55;;;;;;;8.70;2.28;;;;;;;;;;5073370;28;20194;-59
2023/12/22 02:33:24;;;;;;;8.25;1.98;;;;;;;;;;5073498;28;20193;-59
2023/12/22 02:35:51;;;;;;;8.95;2.92;;;;;;;;;;5073223;28;20627;-59
2023/12/22 02:38:19;;;;;;;8.82;2.38;;;;;;;;;;5073197;28;20193;-60
2023/12/22 02:40:47;;;;;;;7.45;2.53;;;;;;;;;;5073047;28;20293;-59
2023/12/22 02:43:14;;;;;;;8.65;2.45;;;;;;;;;;5073253;28;20185;-59
2023/12/22 02:45:41;;;;;;;10.63;2.55;;;;;;;;;;5073182;28;20220;-59
2023/12/22 02:48:08;;;;;;;8.15;1.98;;;;;;;;;;5072994;28;20587;-59
2023/12/22 02:50:35;;;;;;;5.55;2.03;;;;;;;;;;5073022;28;20548;-59
2023/12/22 02:53:02;;;;;;;16.70;3.10;;;;;;;;;;5072916;28;20280;-59
2023/12/22 02:55:29;;;;;;;6.78;1.58;;;;;;;;;;5072988;28;20217;-59
2023/12/22 02:57:57;;;;;;;13.00;2.10;;;;;;;;;;5073073;28;20285;-59
2023/12/22 03:00:24;;;;;;;11.05;2.05;;;;;;;;;;5072634;28;20189;-59
2023/12/22 03:02:51;;;;;;;4.80;1.67;;;;;;;;;;5072853;28;20196;-59
2023/12/22 03:05:18;;;;;;;18.10;3.35;;;;;;;;;;5072808;28;20303;-59
2023/12/22 03:07:45;;;;;;;6.28;1.75;;;;;;;;;;5072929;28;20217;-59
2023/12/22 03:10:12;;;;;;;5.22;1.60;;;;;;;;;;5072995;28;20224;-59
2023/12/22 03:12:39;;;;;;;6.65;2.10;;;;;;;;;;5072861;28;20185;-59
2023/12/22 03:15:08;;;;;;;5.10;1.85;;;;;;;;;;5072931;28;20552;-59
2023/12/22 03:17:35;;;;;;;9.82;1.77;;;;;;;;;;5072734;28;20279;-59
2023/12/22 03:20:02;;;;;;;8.38;1.45;;;;;;;;;;5072592;28;20747;-59
2023/12/22 03:22:29;;;;;;;6.28;1.50;;;;;;;;;;5072811;28;20277;-59
2023/12/22 03:24:55;;;;;;;4.65;1.35;;;;;;;;;;5072835;28;20266;-59
2023/12/22 03:27:22;;;;;;;12.77;1.65;;;;;;;;;;5072908;28;20213;-60
2023/12/22 03:29:49;;;;;;;6.47;1.50;;;;;;;;;;5072660;28;20285;-59
2023/12/22 03:32:18;;;;;;;5.50;1.30;;;;;;;;;;5072597;28;20272;-59
2023/12/22 03:34:44;;;;;;;9.40;2.35;;;;;;;;;;5072440;28;20278;-59
2023/12/22 03:37:11;;;;;;;3.22;1.40;;;;;;;;;;5072725;28;20186;-59
2023/12/22 03:39:38;;;;;;;8.77;1.85;;;;;;;;;;5072595;28;20576;-59
2023/12/22 03:42:05;;;;;;;5.28;1.70;;;;;;;;;;5072621;28;20647;-59
2023/12/22 03:44:33;;;;;;;5.65;1.55;;;;;;;;;;5072444;28;20653;-59
2023/12/22 03:46:59;;;;;;;5.43;1.13;;;;;;;;;;5072360;28;20235;-59
2023/12/22 03:49:27;;;;;;;3.03;2.10;;;;;;;;;;5072372;28;20599;-59
2023/12/22 03:51:54;;;;;;;7.18;1.60;;;;;;;;;;5072533;28;20443;-59
2023/12/22 03:54:21;;;;;;;4.60;1.80;;;;;;;;;;5072138;28;20228;-59
2023/12/22 03:56:48;;;;;;;6.68;1.58;;;;;;;;;;5072461;28;20200;-59
2023/12/22 03:59:18;;;;;;;10.57;1.48;;;;;;;;;;5072349;28;20613;-59
2023/12/22 04:01:45;;;;;;;9.63;2.20;;;;;;;;;;5072299;28;20243;-59
2023/12/22 04:04:12;;;;;;;4.15;1.35;;;;;;;;;;5072526;28;20224;-59
2023/12/22 04:06:41;;;;;;;5.38;1.88;;;;;;;;;;5072408;28;20186;-59
2023/12/22 04:09:08;;;;;;;4.75;1.98;;;;;;;;;;5072225;28;20217;-59
2023/12/22 04:11:36;;;;;;;8.27;1.50;;;;;;;;;;5072328;28;20185;-59
2023/12/22 04:14:03;;;;;;;5.57;1.40;;;;;;;;;;5075710;28;20272;-59
2023/12/22 04:16:30;;;;;;;7.38;1.45;;;;;;;;;;5075676;28;20243;-59
2023/12/22 04:18:57;;;;;;;3.20;0.98;;;;;;;;;;5075925;28;20576;-59
2023/12/22 04:21:24;;;;;;;3.35;1.45;;;;;;;;;;5076068;28;20276;-59
2023/12/22 04:23:52;;;;;;;1.80;1.10;;;;;;;;;;5075721;28;20219;-59
2023/12/22 04:26:19;;;;;;;5.03;1.08;;;;;;;;;;5075542;28;20597;-59
2023/12/22 04:28:46;;;;;;;8.93;1.40;;;;;;;;;;5075058;28;20718;-59
2023/12/22 04:31:13;;;;;;;3.08;0.93;;;;;;;;;;5075272;28;20195;-59
2023/12/22 04:33:40;;;;;;;5.93;1.10;;;;;;;;;;5074967;28;20280;-59
2023/12/22 04:36:07;;;;;;;3.80;1.02;;;;;;;;;;5074907;28;20220;-59
2023/12/22 04:38:35;;;;;;;2.55;1.00;;;;;;;;;;5074791;28;20272;-59
2023/12/22 04:41:03;;;;;;;4.90;1.00;;;;;;;;;;5074666;28;20224;-59
2023/12/22 04:43:30;;;;;;;2.00;0.80;;;;;;;;;;5074575;28;20225;-59
2023/12/22 04:45:57;;;;;;;2.10;0.88;;;;;;;;;;5074790;28;20538;-59
2023/12/22 04:48:24;;;;;;;4.30;1.10;;;;;;;;;;5075236;28;20224;-59
2023/12/22 04:50:51;;;;;;;2.53;1.08;;;;;;;;;;5075224;28;20649;-59
2023/12/22 04:53:18;;;;;;;2.33;1.10;;;;;;;;;;5075218;28;20280;-59
2023/12/22 04:55:45;;;;;;;1.38;0.93;;;;;;;;;;5074896;28;20696;-59
2023/12/22 04:58:13;;;;;;;3.90;1.20;;;;;;;;;;5075062;28;20188;-59
2023/12/22 05:00:41;;;;;;;1.20;1.08;;;;;;;;;;5075148;28;20197;-59
2023/12/22 05:03:08;;;;;;;2.78;1.70;;;;;;;;;;5075017;28;20588;-59
2023/12/22 05:05:35;;;;;;;4.00;1.10;;;;;;;;;;5075002;28;20714;-59
2023/12/22 05:08:02;;;;;;;3.80;1.20;;;;;;;;;;5074704;28;20223;-59
2023/12/22 05:10:29;;;;;;;2.58;1.10;;;;;;;;;;5074726;28;20279;-60
2023/12/22 05:12:56;;;;;;;2.38;0.70;;;;;;;;;;5074942;28;20186;-59
2023/12/22 05:15:24;;;;;;;7.82;1.52;;;;;;;;;;5074837;28;20193;-59
2023/12/22 05:17:52;;;;;;;2.47;0.90;;;;;;;;;;5074658;28;20283;-60
2023/12/22 05:20:19;;;;;;;3.42;1.00;;;;;;;;;;5074551;28;20204;-59
2023/12/22 05:22:46;;;;;;;4.72;1.15;;;;;;;;;;5074329;28;20224;-59
2023/12/22 05:25:14;;;;;;;5.95;1.10;;;;;;;;;;5074321;28;20195;-59
2023/12/22 05:27:43;;;;;;;1.15;1.05;;;;;;;;;;5074425;28;20219;-59
2023/12/22 05:30:10;;;;;;;1.63;0.68;;;;;;;;;;5074508;28;20189;-59
2023/12/22 05:32:38;;;;;;;1.90;0.90;;;;;;;;;;5074604;28;20281;-59
2023/12/22 05:35:05;;;;;;;1.33;1.00;;;;;;;;;;5074352;28;20264;-59
2023/12/22 05:37:32;;;;;;;3.15;0.95;;;;;;;;;;5074145;28;20272;-59
2023/12/22 05:39:59;;;;;;;2.13;1.00;;;;;;;;;;5074351;28;20281;-59
2023/12/22 05:42:26;;;;;;;3.83;0.80;;;;;;;;;;5074315;28;20625;-59
2023/12/22 05:44:53;;;;;;;1.27;0.77;;;;;;;;;;5074335;28;20193;-59
2023/12/22 05:47:20;;;;;;;1.52;0.88;;;;;;;;;;5074045;28;20189;-59
2023/12/22 05:49:48;;;;;;;3.28;0.75;;;;;;;;;;5073845;28;20255;-59
2023/12/22 05:52:15;;;;;;;1.23;0.57;;;;;;;;;;5073733;28;20185;-59
2023/12/22 05:54:42;;;;;;;3.80;0.90;;;;;;;;;;5074096;28;20223;-59
2023/12/22 05:57:09;;;;;;;0.98;0.70;;;;;;;;;;5073977;28;20196;-59
2023/12/22 05:59:36;;;;;;;3.10;0.70;;;;;;;;;;5073894;28;20239;-59
2023/12/22 06:02:03;;;;;;;1.58;0.75;;;;;;;;;;5073735;28;20193;-59
2023/12/22 06:04:30;;;;;;;3.05;0.70;;;;;;;;;;5073690;28;20219;-59
2023/12/22 06:06:58;;;;;;;6.35;0.77;;;;;;;;;;5073625;28;20279;-59
2023/12/22 06:09:25;;;;;;;1.10;0.80;;;;;;;;;;5073705;28;20239;-58
2023/12/22 06:11:52;;;;;;;1.90;1.05;;;;;;;;;;5073411;28;20193;-59
2023/12/22 06:14:19;;;;;;;4.97;1.38;;;;;;;;;;5073502;28;20280;-59
2023/12/22 06:16:46;;;;;;;4.18;1.08;;;;;;;;;;5073392;28;20196;-59
2023/12/22 06:19:13;;;;;;;4.90;0.90;;;;;;;;;;5073235;28;20185;-59
2023/12/22 06:21:41;;;;;;;2.15;0.90;;;;;;;;;;5073492;28;20567;-59
2023/12/22 06:24:09;;;;;;;3.63;1.23;;;;;;;;;;5073400;28;20198;-59
2023/12/22 06:26:36;;;;;;;4.82;0.80;;;;;;;;;;5073442;28;20636;-59
2023/12/22 06:29:04;;;;;;;24.63;14.18;;;;;;;;;;5072974;28;20676;-59
2023/12/22 06:31:31;;;;;;;3.92;3.10;;;;;;;;;;5073047;28;20190;-59
2023/12/22 06:34:01;;;;;;;7.35;1.20;;;;;;;;;;5072768;28;20200;-59
2023/12/22 06:36:28;;;;;;;5.50;1.42;;;;;;;;;;5072782;28;20208;-59
2023/12/22 06:38:55;;;;;;;2.33;1.17;;;;;;;;;;5073097;28;20284;-59
2023/12/22 06:41:24;;;;;;;5.63;1.08;;;;;;;;;;5073287;28;20195;-59
2023/12/22 06:43:51;;;;;;;2.40;0.80;;;;;;;;;;5073112;28;20211;-59
2023/12/22 06:46:19;;;;;;;3.40;1.00;;;;;;;;;;5072911;28;20200;-59
2023/12/22 06:48:46;;;;;;;2.75;1.33;;;;;;;;;;5072781;28;20214;-59
2023/12/22 06:51:19;;;;;;;2.08;0.90;;;;;;;;;;5072878;28;20189;-59
2023/12/22 06:53:46;;;;;;;2.45;1.00;;;;;;;;;;5072867;28;20200;-59
2023/12/22 06:56:17;;;;;;;4.75;1.60;;;;;;;;;;5072675;28;20310;-59
2023/12/22 06:58:46;;;;;;;2.92;1.70;;;;;;;;;;5072605;28;20597;-59
2023/12/22 07:01:13;;;;;;;1.95;0.90;;;;;;;;;;5072939;28;20280;-59
2023/12/22 07:03:40;;;;;;;4.75;0.90;;;;;;;;;;5072739;28;20567;-59
2023/12/22 07:06:07;;;;;;;7.78;3.45;;;;;;;;;;5072614;28;20526;-60
2023/12/22 07:08:34;;;;;;;5.90;3.13;;;;;;;;;;5072720;28;20209;-59
2023/12/22 07:11:01;;;;;;;3.15;1.15;;;;;;;;;;5072907;28;20189;-59
2023/12/22 07:13:28;;;;;;;2.65;1.02;;;;;;;;;;5072632;28;20314;-60
2023/12/22 07:15:56;;;;;;;2.55;0.85;;;;;;;;;;5072787;28;20608;-59
2023/12/22 07:18:25;;;;;;;2.90;0.90;;;;;;;;;;5072619;28;20667;-59
2023/12/22 07:20:52;;;;;;;1.67;0.90;;;;;;;;;;5072688;28;20189;-59
2023/12/22 07:23:18;;;;;;;3.53;1.25;;;;;;;;;;5072592;28;20288;-59
2023/12/22 07:25:45;;;;;;;4.60;1.35;;;;;;;;;;5072658;28;20448;-59
2023/12/22 07:28:12;;;;;;;3.42;1.60;;;;;;;;;;5072330;28;20671;-59
2023/12/22 07:30:39;;;;;;;3.97;1.10;;;;;;;;;;5072866;28;20199;-59
2023/12/22 07:33:07;;;;;;;2.65;1.13;;;;;;;;;;5072634;28;20227;-59
2023/12/22 07:35:35;;;;;;;1.50;0.98;;;;;;;;;;5072314;28;20737;-59
2023/12/22 07:38:02;;;;;;;2.25;1.00;;;;;;;;;;5072435;28;20200;-59
2023/12/22 07:40:30;;;;;;;3.88;1.10;;;;;;;;;;5072320;28;20200;-59
2023/12/22 07:42:57;;;;;;;2.97;1.20;;;;;;;;;;5072591;28;20189;-59
2023/12/22 07:45:24;;;;;;;3.42;1.40;;;;;;;;;;5072359;28;20649;-59
2023/12/22 07:47:51;;;;;;;4.57;1.17;;;;;;;;;;5075797;28;20544;-59
2023/12/22 07:50:21;;;;;;;4.25;2.55;;;;;;;;;;5076207;28;20699;-59
2023/12/22 07:52:48;;;;;;;14.95;5.70;;;;;;;;;;5075931;28;20653;-59
2023/12/22 07:55:15;;;;;;;2.60;0.90;;;;;;;;;;5075897;28;20284;-59
2023/12/22 07:57:42;;;;;;;1.80;0.95;;;;;;;;;;5076066;28;20276;-58
2023/12/22 08:00:11;;;;;;;5.03;1.20;;;;;;;;;;5076042;28;20207;-59
2023/12/22 08:02:38;;;;;;;1.75;0.90;;;;;;;;;;5075945;28;20276;-59
2023/12/22 08:05:05;;;;;;;1.20;0.70;;;;;;;;;;5075898;28;20224;-56
2023/12/22 08:07:33;;;;;;;5.28;1.75;;;;;;;;;;5075520;28;20181;-59
2023/12/22 08:10:01;;;;;;;3.35;1.00;;;;;;;;;;5075863;28;20227;-59
2023/12/22 08:12:28;;;;;;;5.60;0.85;;;;;;;;;;5075723;28;20193;-59
2023/12/22 08:14:55;;;;;;;3.85;1.38;;;;;;;;;;5075856;28;20280;-56
2023/12/22 08:17:22;;;;;;;6.13;0.98;;;;;;;;;;5075596;28;20702;-56
2023/12/22 08:19:49;;;;;;;4.22;1.20;;;;;;;;;;5075558;28;20280;-63
2023/12/22 08:22:16;;;;;;;3.47;1.48;;;;;;;;;;5075574;28;20284;-60
2023/12/22 08:24:45;;;;;;;7.65;1.15;;;;;;;;;;5075582;28;20186;-61
2023/12/22 08:27:11;;;;;;;3.88;0.90;;;;;;;;;;5075302;28;20197;-61
2023/12/22 08:29:38;;;;;;;1.48;0.80;;;;;;;;;;5075483;28;20221;-59
2023/12/22 08:32:06;;;;;;;1.55;0.93;;;;;;;;;;5075490;28;20283;-62
2023/12/22 08:34:32;;;;;;;1.40;0.77;;;;;;;;;;5075296;28;20605;-60
2023/12/22 08:37:00;;;;;;;3.45;1.48;;;;;;;;;;5075158;28;20189;-61
2023/12/22 08:39:27;;;;;;;1.75;0.73;;;;;;;;;;5075252;28;20189;-61
2023/12/22 08:41:55;;;;;;;5.95;0.90;;;;;;;;;;5075238;28;20297;-61
2023/12/22 08:44:22;;;;;;;3.97;0.93;;;;;;;;;;5075319;28;20563;-60
2023/12/22 08:46:49;;;;;;;4.70;1.15;;;;;;;;;;5075055;28;20541;-60
2023/12/22 08:49:16;;;;;;;4.68;1.10;;;;;;;;;;5074925;28;20231;-59
2023/12/22 08:51:43;;;;;;;1.00;0.85;;;;;;;;;;5075179;28;20189;-61
2023/12/22 08:54:10;;;;;;;4.53;1.25;;;;;;;;;;5074928;28;20185;-60
2023/12/22 08:56:37;;;;;;;6.35;1.10;;;;;;;;;;5074976;28;20272;-59
2023/12/22 08:59:08;;;;;;;8.70;2.10;;;;;;;;;;5074307;28;20299;-58
2023/12/22 09:01:36;;;;;;;4.50;1.60;;;;;;;;;;5074838;28;20194;-60
2023/12/22 09:04:03;;;;;;;9.35;1.63;;;;;;;;;;5074682;28;20200;-59
2023/12/22 09:06:30;;;;;;;1.90;1.40;;;;;;;;;;5074889;28;20192;-61
2023/12/22 09:08:57;;;;;;;9.55;1.80;;;;;;;;;;5074170;28;20300;-61
2023/12/22 09:11:25;;;;;;;2.67;1.20;;;;;;;;;;5074613;28;20758;-59
2023/12/22 09:13:52;;;;;;;6.32;1.83;;;;;;;;;;5074568;28;20197;-63
2023/12/22 09:16:23;;;;;;;4.25;1.33;;;;;;;;;;5074327;28;20189;-61
2023/12/22 09:18:51;;;;;;;2.90;1.15;;;;;;;;;;5074633;28;20215;-61
2023/12/22 09:21:18;;;;;;;7.72;2.10;;;;;;;;;;5074608;28;20219;-61
2023/12/22 09:23:46;;;;;;;11.77;3.03;;;;;;;;;;5074453;28;20276;-61
2023/12/22 09:26:13;;;;;;;7.68;2.35;;;;;;;;;;5074345;28;20201;-60
2023/12/22 09:28:40;;;;;;;5.97;2.55;;;;;;;;;;5073391;28;20189;-61
2023/12/22 09:31:08;;;;;;;3.55;1.02;;;;;;;;;;5072777;28;20276;-61
2023/12/22 09:33:36;;;;;;;6.40;1.50;;;;;;;;;;5074195;28;20239;-61
2023/12/22 09:36:03;;;;;;;10.52;1.65;;;;;;;;;;5074289;28;20195;-60
2023/12/22 09:38:30;;;;;;;2.97;1.20;;;;;;;;;;5074410;28;20276;-60
2023/12/22 09:40:58;;;;;;;3.85;1.25;;;;;;;;;;5073923;28;20284;-60
2023/12/22 09:43:25;;;;;;;4.38;1.25;;;;;;;;;;5073650;28;20236;-60
2023/12/22 09:45:52;;;;;;;5.45;2.25;;;;;;;;;;5074182;28;20276;-60
2023/12/22 09:48:26;;;;;;;5.10;2.25;;;;;;;;;;5073809;28;20200;-60
2023/12/22 09:50:55;;;;;;;12.38;1.90;;;;;;;;;;5073674;28;20683;-60
2023/12/22 09:53:22;;;;;;;12.45;3.05;;;;;;;;;;5073610;28;20189;-60
2023/12/22 09:55:50;;;;;;;5.80;1.88;;;;;;;;;;5073426;28;20336;-60
2023/12/22 09:58:18;;;;;;;13.10;2.50;;;;;;;;;;5073902;28;20272;-60
2023/12/22 10:00:45;;;;;;;5.78;1.88;;;;;;;;;;5073798;28;20270;-60
2023/12/22 10:03:13;;;;;;;12.70;2.72;;;;;;;;;;5073716;28;20184;-60
2023/12/22 10:05:41;;;;;;;6.68;1.83;;;;;;;;;;5073650;28;20189;-62
2023/12/22 10:08:11;;;;;;;6.57;1.98;;;;;;;;;;5073326;28;20232;-61
2023/12/22 10:10:39;;;;;;;9.57;2.38;;;;;;;;;;5072501;28;20224;-59
2023/12/22 10:13:09;;;;;;;8.05;2.50;;;;;;;;;;5073713;28;20185;-59
2023/12/22 10:15:36;;;;;;;8.10;5.57;;;;;;;;;;5073466;28;20193;-58
2023/12/22 10:18:03;;;;;;;8.60;1.63;;;;;;;;;;5073569;28;20279;-58
2023/12/22 10:20:30;;;;;;;15.85;2.28;;;;;;;;;;5073233;28;20669;-56
2023/12/22 10:22:57;;;;;;;8.48;1.80;;;;;;;;;;5073454;28;20276;-60
2023/12/22 10:25:29;;;;;;;9.20;2.08;;;;;;;;;;5073425;28;20243;-60
2023/12/22 10:27:56;;;;;;;6.05;1.60;;;;;;;;;;5073307;28;20200;-60
2023/12/22 10:30:24;;;;;;;10.23;1.73;;;;;;;;;;5073165;28;20221;-60
2023/12/22 10:32:52;;;;;;;3.35;1.30;;;;;;;;;;5073080;28;20238;-59
2023/12/22 10:35:19;;;;;;;12.27;1.80;;;;;;;;;;5072995;28;20545;-57
2023/12/22 10:37:47;;;;;;;9.30;3.42;;;;;;;;;;5073035;28;20193;-60
2023/12/22 10:40:14;;;;;;;13.82;2.20;;;;;;;;;;5073211;28;20193;-60
2023/12/22 10:42:43;;;;;;;6.65;2.40;;;;;;;;;;5073087;28;20195;-59
2023/12/22 10:45:10;;;;;;;9.38;1.80;;;;;;;;;;5072810;28;20256;-59
2023/12/22 10:47:37;;;;;;;13.15;2.78;;;;;;;;;;5072889;28;20228;-60
2023/12/22 10:50:04;;;;;;;5.23;1.93;;;;;;;;;;5072676;28;20208;-61
2023/12/22 10:52:31;;;;;;;14.80;3.13;;;;;;;;;;5073067;28;20451;-59
2023/12/22 10:54:58;;;;;;;9.98;2.45;;;;;;;;;;5072864;28;20304;-60
2023/12/22 10:57:26;;;;;;;9.32;2.60;;;;;;;;;;5072856;28;20584;-60
2023/12/22 10:59:58;;;;;;;7.38;1.90;;;;;;;;;;5072714;28;20284;-59
2023/12/22 11:02:27;;;;;;;7.13;1.60;;;;;;;;;;5072557;28;20185;-61
2023/12/22 11:05:04;;;;;;;9.13;2.20;;;;;;;;;;5072232;28;20743;-61
2023/12/22 11:07:34;;;;;;;11.40;2.15;;;;;;;;;;5072825;28;20447;-63
2023/12/22 11:10:04;;;;;;;5.95;1.85;;;;;;;;;;5072681;28;20308;-62
2023/12/22 11:12:32;;;;;;;4.10;1.50;;;;;;;;;;5072642;28;20194;-60
2023/12/22 11:15:02;;;;;;;6.38;2.20;;;;;;;;;;5072348;28;20196;-63
2023/12/22 11:17:30;;;;;;;5.85;1.75;;;;;;;;;;5072815;28;20196;-61
2023/12/22 11:19:57;;;;;;;5.53;2.00;;;;;;;;;;5072715;28;20526;-60
2023/12/22 11:22:24;;;;;;;10.35;2.30;;;;;;;;;;5075590;28;20197;-60
2023/12/22 11:24:51;;;;;;;6.28;1.90;;;;;;;;;;5076595;28;20731;-59
2023/12/22 11:27:19;;;;;;;6.73;2.00;;;;;;;;;;5076408;28;20225;-60
2023/12/22 11:29:48;;;;;;;4.95;2.03;;;;;;;;;;5075074;28;20466;-60
2023/12/22 11:32:18;;;;;;;11.00;1.73;;;;;;;;;;5078663;28;20193;-60
2023/12/22 11:34:45;;;;;;;6.35;2.05;;;;;;;;;;5077810;28;20439;-59
2023/12/22 11:37:13;;;;;;;6.78;1.73;;;;;;;;;;5081485;28;20185;-60
2023/12/22 11:39:40;;;;;;;10.55;2.17;;;;;;;;;;5082014;28;20197;-59
2023/12/22 11:42:08;;;;;;;8.18;4.00;;;;;;;;;;5081823;28;20209;-59
2023/12/22 11:44:35;;;;;;;8.93;1.50;;;;;;;;;;5077151;28;20212;-60
2023/12/22 11:47:05;;;;;;;3.08;1.60;;;;;;;;;;5076142;28;20584;-60
2023/12/22 11:49:35;;;;;;;6.23;1.70;;;;;;;;;;5076004;28;20623;-60
2023/12/22 11:52:10;;;;;;;10.82;2.40;;;;;;;;;;5075567;28;20447;-60
2023/12/22 11:54:51;;;;;;;3.65;1.80;;;;;;;;;;5075829;28;20224;-60
2023/12/22 11:57:30;;;;;;;8.52;1.92;;;;;;;;;;5076101;28;20281;-60
2023/12/22 11:59:58;;;;;;;4.00;1.50;;;;;;;;;;5076117;28;20270;-60
2023/12/22 12:02:25;;;;;;;5.00;1.23;;;;;;;;;;5076087;28;20189;-60
2023/12/22 12:04:53;;;;;;;4.90;1.33;;;;;;;;;;5076170;28;20883;-60
2023/12/22 12:07:39;;;;;;;8.55;2.47;;;;;;;;;;5075843;28;20193;-60
2023/12/22 12:10:07;;;;;;;6.85;2.05;;;;;;;;;;5075987;28;20610;-60
2023/12/22 12:12:34;;;;;;;4.70;2.25;;;;;;;;;;5075692;28;20276;-60
2023/12/22 12:15:04;;;;;;;10.05;2.10;;;;;;;;;;5075757;28;20534;-60
2023/12/22 12:17:31;;;;;;;9.13;1.95;;;;;;;;;;5075709;28;20193;-60
2023/12/22 12:20:00;;;;;;;7.30;1.60;;;;;;;;;;5075606;28;20283;-60
2023/12/22 12:22:27;;;;;;;3.38;1.50;;;;;;;;;;5075754;28;20197;-60
2023/12/22 12:24:55;;;;;;;7.47;1.97;;;;;;;;;;5075723;28;20221;-60
2023/12/22 12:27:22;;;;;;;4.95;1.40;;;;;;;;;;5075639;28;20449;-60
2023/12/22 12:29:49;;;;;;;5.88;1.55;;;;;;;;;;5075522;28;20271;-60
2023/12/22 12:32:16;;;;;;;6.05;1.73;;;;;;;;;;5075174;28;20189;-60
2023/12/22 12:34:44;;;;;;;5.50;1.87;;;;;;;;;;5075059;28;20553;-60
2023/12/22 12:37:12;;;;;;;7.13;1.30;;;;;;;;;;5075562;28;20538;-60
2023/12/22 12:39:41;;;;;;;5.80;1.23;;;;;;;;;;5075564;28;20647;-60
2023/12/22 12:42:09;;;;;;;8.70;1.75;;;;;;;;;;5075374;28;20246;-60
2023/12/22 12:44:36;;;;;;;7.57;1.75;;;;;;;;;;5075167;28;20299;-60
2023/12/22 12:47:12;;;;;;;3.85;1.42;;;;;;;;;;5075372;28;20771;-60
2023/12/22 12:49:39;;;;;;;4.13;1.60;;;;;;;;;;5075294;28;20275;-60
2023/12/22 12:52:07;;;;;;;5.80;1.50;;;;;;;;;;5075402;28;20223;-61
2023/12/22 12:54:35;;;;;;;2.38;1.30;;;;;;;;;;5074968;28;21046;-60
2023/12/22 12:57:02;;;;;;;5.13;1.42;;;;;;;;;;5074658;28;20276;-60
2023/12/22 12:59:29;;;;;;;7.25;1.42;;;;;;;;;;5075035;28;20672;-60
2023/12/22 13:01:57;;;;;;;2.83;1.70;;;;;;;;;;5075151;28;20315;-60
2023/12/22 13:04:24;;;;;;;5.70;1.63;;;;;;;;;;5075035;28;20212;-60
2023/12/22 13:06:52;;;;;;;9.63;1.77;;;;;;;;;;5074896;28;20277;-60
2023/12/22 13:09:19;;;;;;;6.95;1.90;;;;;;;;;;5074889;28;20191;-60
2023/12/22 13:11:48;;;;;;;8.60;2.10;;;;;;;;;;5074612;28;20223;-60
2023/12/22 13:14:23;;;;;;;8.75;1.55;;;;;;;;;;5074722;28;20534;-60
2023/12/22 13:16:50;;;;;;;9.95;1.65;;;;;;;;;;5074745;28;20193;-60
2023/12/22 13:19:17;;;;;;;4.82;1.90;;;;;;;;;;5074705;28;20284;-60
2023/12/22 13:21:44;;;;;;;6.95;1.85;;;;;;;;;;5074607;28;20191;-60
2023/12/22 13:24:12;;;;;;;10.30;2.05;;;;;;;;;;5074501;28;20280;-60
2023/12/22 13:26:39;;;;;;;9.02;2.03;;;;;;;;;;5074645;28;20194;-60
2023/12/22 13:29:07;;;;;;;12.98;2.20;;;;;;;;;;5074850;28;20243;-60
2023/12/22 13:31:35;;;;;;;9.75;1.70;;;;;;;;;;5074279;28;20221;-60
2023/12/22 13:34:02;;;;;;;8.60;2.03;;;;;;;;;;5074375;28;20193;-60
2023/12/22 13:36:29;;;;;;;6.78;2.55;;;;;;;;;;5074352;28;20833;-60
2023/12/22 13:38:56;;;;;;;7.97;1.90;;;;;;;;;;5074324;28;20201;-60
2023/12/22 13:41:23;;;;;;;8.48;1.40;;;;;;;;;;5074566;28;20200;-60
2023/12/22 13:43:50;;;;;;;6.50;1.60;;;;;;;;;;5074091;28;20280;-60
2023/12/22 13:46:18;;;;;;;4.25;1.50;;;;;;;;;;5074245;28;20189;-60
2023/12/22 13:48:46;;;;;;;8.50;1.80;;;;;;;;;;5074129;28;20530;-60
2023/12/22 13:51:13;;;;;;;10.05;2.95;;;;;;;;;;5073888;28;20668;-60
2023/12/22 13:53:48;;;;;;;7.78;1.88;;;;;;;;;;5073870;28;20201;-60
2023/12/22 13:56:15;;;;;;;4.88;1.50;;;;;;;;;;5073681;28;20270;-60
2023/12/22 13:58:45;;;;;;;8.40;2.08;;;;;;;;;;5073855;28;20185;-61
2023/12/22 14:01:14;;;;;;;5.90;1.55;;;;;;;;;;5073739;28;20204;-60
2023/12/22 14:03:43;;;;;;;3.63;1.95;;;;;;;;;;5073575;28;20186;-61
2023/12/22 14:06:11;;;;;;;9.82;3.00;;;;;;;;;;5073465;28;20221;-60
2023/12/22 14:08:39;;;;;;;5.95;1.85;;;;;;;;;;5073768;28;20196;-60
2023/12/22 14:11:06;;;;;;;5.68;1.50;;;;;;;;;;5073560;28;20244;-61
2023/12/22 14:13:34;;;;;;;9.57;2.20;;;;;;;;;;5073568;28;20189;-60
2023/12/22 14:16:01;;;;;;;9.25;2.33;;;;;;;;;;5073454;28;20193;-60
2023/12/22 14:18:28;;;;;;;4.95;1.85;;;;;;;;;;5073299;28;20736;-60
2023/12/22 14:20:56;;;;;;;11.27;1.70;;;;;;;;;;5073431;28;20216;-60
2023/12/22 14:23:23;;;;;;;9.02;1.70;;;;;;;;;;5073388;28;20272;-60
2023/12/22 14:25:50;;;;;;;12.07;2.10;;;;;;;;;;5073245;28;20708;-60
2023/12/22 14:28:17;;;;;;;4.35;1.40;;;;;;;;;;5073544;28;20530;-60
2023/12/22 14:30:44;;;;;;;8.70;1.50;;;;;;;;;;5073172;28;20747;-60
2023/12/22 14:33:10;;;;;;;5.85;1.45;;;;;;;;;;5073127;28;21086;-60
2023/12/22 14:35:37;;;;;;;5.20;1.90;;;;;;;;;;5073257;28;20185;-60
2023/12/22 14:38:06;;;;;;;8.13;1.80;;;;;;;;;;5073300;28;20882;-60
2023/12/22 14:40:33;;;;;;;4.07;1.50;;;;;;;;;;5073186;28;20280;-60
2023/12/22 14:43:02;;;;;;;9.65;1.90;;;;;;;;;;5073120;28;20194;-60